Lowest pressure

Not for real navigation. The accuracy of this data is not assured See disclaimer for more information



ICAO NAME COUNTRY WIND Kt GUST Kt VIS m TEMP/DEW C BARO METAR
CYGL La Grande Riviere, Que Canada 14 0 12800 17/17 29.31 CYGL 191413Z 20014KT 8SM -RA BKN004 OVC012 17/17 A2931 RMK SF7SC1 SLP930 DENSITY ALT 1800FT
CYGW Kuujjuarapik, Que. Canada 10 0 9999 20/16 29.33 CYGW 191400Z AUTO 11010KT 9SM CAVOK 20/16 A2933 RMK SLP935 DENSITY ALT 1300FT
ESNQ Kiruna Airport Sweden 6 0 4000 12/12 29.38 ESNQ 191420Z 12006KT 4000 DZ SCT003 BKN006 OVC011 12/12 Q0995
ESNG Gallivare Sweden 3 0 5000 13/12 29.38 ESNG 191420Z 12003KT 5000 -RA VV006 13/12 Q0995
CYSK Sanikiluaq Airport Canada 6 0 19200 10/10 29.39 CYSK 191400Z 11006KT 12SM -DZ SCT030 BKN050 10/10 A2939 RMK SC3SC3 SLP955 DENSITY ALT 200FT

Show more